Long Lake, Indiana
Current Conditions -  °F | °C
As of 12:15 PM on Thursday 27 Nov 2014 (Local Time) from KANQ Reporting Station
Overcast Overcast  
Wind Chill: 23°   Ceiling: 1600
Heat Index: 30°   Visibility: 3mi
Dew Point: 18°   Wind: 7mph
Humidity: 60%   Direction: 270°W
Pressure: 30.2"   Gusts: NA
Location:  41.7284°N, 84.9169°W
Report Text: KANQ 271715Z AUTO 27006KT 3SM OVC016 M01/M08 A3020 RMK
Loading
Personal Weather Stations






























Interactive Weather Map New forecast layout! Learn more

10-Day Weather Forecast

Advertisements
Track Severe Weather on mobile